Time;durP1;ratioP1;P1;durP2;ratioP2;P2;SDS_P1;SDS_P2;PMS_P1;PMS_P2;Temp;Humidity;BMP_temperature;BMP_pressure;BME280_temperature;BME280_humidity;BME280_pressure;Samples;Min_cycle;Max_cycle;Signal;HPM_P1;HPM_P2
2023/04/04 00:02:00;;;;;;;2.73;1.70;;;;;;;;;;5000252;28;20210;-48
2023/04/04 00:04:27;;;;;;;3.13;1.70;;;;;;;;;;4999977;28;20638;-48
2023/04/04 00:06:53;;;;;;;2.33;1.50;;;;;;;;;;4998794;28;20279;-48
2023/04/04 00:09:20;;;;;;;2.43;1.63;;;;;;;;;;4998856;28;20217;-48
2023/04/04 00:11:46;;;;;;;2.63;1.70;;;;;;;;;;4996742;28;20210;-48
2023/04/04 00:14:12;;;;;;;2.83;1.70;;;;;;;;;;4998289;28;20179;-49
2023/04/04 00:16:38;;;;;;;2.10;1.83;;;;;;;;;;4998840;28;20702;-49
2023/04/04 00:19:04;;;;;;;2.43;1.70;;;;;;;;;;5000509;28;20191;-48
2023/04/04 00:21:31;;;;;;;2.40;1.73;;;;;;;;;;5001612;28;20320;-49
2023/04/04 00:23:57;;;;;;;2.13;1.93;;;;;;;;;;4996543;28;20186;-49
2023/04/04 00:26:23;;;;;;;1.90;1.80;;;;;;;;;;4999160;28;20199;-48
2023/04/04 00:28:49;;;;;;;5.37;1.83;;;;;;;;;;4998632;28;20266;-48
2023/04/04 00:31:16;;;;;;;3.23;1.67;;;;;;;;;;4997221;28;20210;-48
2023/04/04 00:33:42;;;;;;;1.60;1.50;;;;;;;;;;5000773;28;20607;-48
2023/04/04 00:36:08;;;;;;;2.77;1.60;;;;;;;;;;4995007;28;20647;-48
2023/04/04 00:38:34;;;;;;;2.10;1.70;;;;;;;;;;4995908;28;21179;-49
2023/04/04 00:41:00;;;;;;;2.67;1.90;;;;;;;;;;4997267;28;20267;-48
2023/04/04 00:43:27;;;;;;;2.33;1.80;;;;;;;;;;4999135;28;20186;-48
2023/04/04 00:45:53;;;;;;;3.73;1.70;;;;;;;;;;4999322;28;20665;-47
2023/04/04 00:48:20;;;;;;;4.37;1.77;;;;;;;;;;5001402;28;20178;-48
2023/04/04 00:50:46;;;;;;;2.30;2.07;;;;;;;;;;4998132;28;20212;-48
2023/04/04 00:53:12;;;;;;;2.47;1.67;;;;;;;;;;4998628;28;20233;-48
2023/04/04 00:55:39;;;;;;;2.10;1.90;;;;;;;;;;4993608;28;20179;-48
2023/04/04 00:58:06;;;;;;;2.73;2.10;;;;;;;;;;4995370;28;20190;-48
2023/04/04 01:00:35;;;;;;;2.10;1.90;;;;;;;;;;4999812;28;20602;-48
2023/04/04 01:03:02;;;;;;;1.90;1.47;;;;;;;;;;4998045;28;20178;-48
2023/04/04 01:05:28;;;;;;;2.90;1.73;;;;;;;;;;4999016;28;21569;-49
2023/04/04 01:07:55;;;;;;;2.70;1.80;;;;;;;;;;4997897;28;20274;-48
2023/04/04 01:10:21;;;;;;;2.67;1.93;;;;;;;;;;4999053;28;20199;-48
2023/04/04 01:12:47;;;;;;;2.33;1.83;;;;;;;;;;4998153;28;20214;-48
2023/04/04 01:15:13;;;;;;;1.70;1.60;;;;;;;;;;4997806;28;20178;-48
2023/04/04 01:17:40;;;;;;;5.00;2.10;;;;;;;;;;4999522;28;20256;-48
2023/04/04 01:20:08;;;;;;;2.10;1.80;;;;;;;;;;5003109;28;20277;-47
2023/04/04 01:22:35;;;;;;;1.90;1.80;;;;;;;;;;4998398;28;20705;-48
2023/04/04 01:25:01;;;;;;;3.50;1.97;;;;;;;;;;4996150;28;20197;-48
2023/04/04 01:27:28;;;;;;;1.90;1.70;;;;;;;;;;4998396;28;20183;-48
2023/04/04 01:29:54;;;;;;;3.27;1.50;;;;;;;;;;4998081;28;20194;-48
2023/04/04 01:32:23;;;;;;;2.00;1.80;;;;;;;;;;4996810;28;20222;-48
2023/04/04 01:35:09;;;;;;;2.97;1.77;;;;;;;;;;5008444;28;20219;-51
2023/04/04 01:37:36;;;;;;;3.33;1.87;;;;;;;;;;4996489;28;20178;-50
2023/04/04 01:40:23;;;;;;;2.83;1.70;;;;;;;;;;4994855;28;20658;-50
2023/04/04 01:42:50;;;;;;;2.07;1.70;;;;;;;;;;4995869;28;20221;-51
2023/04/04 01:45:17;;;;;;;2.97;2.17;;;;;;;;;;4997823;28;20223;-51
2023/04/04 01:47:43;;;;;;;2.20;1.80;;;;;;;;;;4998267;28;20256;-48
2023/04/04 01:50:10;;;;;;;1.50;1.40;;;;;;;;;;4998776;28;20586;-48
2023/04/04 01:52:36;;;;;;;3.10;1.63;;;;;;;;;;4995961;28;21460;-48
2023/04/04 01:55:03;;;;;;;2.83;2.03;;;;;;;;;;4997506;28;20247;-48
2023/04/04 01:57:30;;;;;;;1.97;1.77;;;;;;;;;;4995793;28;20215;-49
2023/04/04 01:59:56;;;;;;;3.77;1.40;;;;;;;;;;4997206;28;20666;-48
2023/04/04 02:02:22;;;;;;;2.73;1.90;;;;;;;;;;4996735;28;20203;-48
2023/04/04 02:04:48;;;;;;;2.10;1.80;;;;;;;;;;4996921;28;20260;-48
2023/04/04 02:07:14;;;;;;;2.27;2.00;;;;;;;;;;4999164;28;20317;-48
2023/04/04 02:09:40;;;;;;;4.10;2.10;;;;;;;;;;4997319;28;20224;-48
2023/04/04 02:12:07;;;;;;;1.67;1.57;;;;;;;;;;4998139;28;20214;-48
2023/04/04 02:14:34;;;;;;;2.60;1.63;;;;;;;;;;4999496;28;21655;-48
2023/04/04 02:17:00;;;;;;;2.00;1.80;;;;;;;;;;4996864;28;20727;-48
2023/04/04 02:19:26;;;;;;;2.00;1.80;;;;;;;;;;4998463;28;20183;-49
2023/04/04 02:21:52;;;;;;;2.90;2.10;;;;;;;;;;5003199;28;20226;-48
2023/04/04 02:24:18;;;;;;;1.80;1.70;;;;;;;;;;4995614;28;20191;-48
2023/04/04 02:26:45;;;;;;;1.97;1.87;;;;;;;;;;4997641;28;20210;-49
2023/04/04 02:29:11;;;;;;;2.17;1.93;;;;;;;;;;4998175;28;20181;-49
2023/04/04 02:31:37;;;;;;;2.77;1.83;;;;;;;;;;4997823;28;20239;-51
2023/04/04 02:34:03;;;;;;;3.70;2.03;;;;;;;;;;4997240;28;20202;-50
2023/04/04 02:36:29;;;;;;;3.73;2.20;;;;;;;;;;4999818;28;20516;-50
2023/04/04 02:38:55;;;;;;;2.23;2.00;;;;;;;;;;5002246;28;20277;-50
2023/04/04 02:41:22;;;;;;;3.07;2.23;;;;;;;;;;5006575;28;20197;-50
2023/04/04 02:43:48;;;;;;;2.23;1.80;;;;;;;;;;5004131;28;20190;-51
2023/04/04 02:46:14;;;;;;;2.07;1.70;;;;;;;;;;4999632;28;20764;-49
2023/04/04 02:48:40;;;;;;;1.90;1.73;;;;;;;;;;4994636;28;20932;-48
2023/04/04 02:51:06;;;;;;;3.67;1.93;;;;;;;;;;4995329;28;20604;-49
2023/04/04 02:53:32;;;;;;;3.23;2.47;;;;;;;;;;4997724;28;20246;-49
2023/04/04 02:55:58;;;;;;;1.83;1.63;;;;;;;;;;4995561;28;20194;-48
2023/04/04 02:58:24;;;;;;;2.40;1.90;;;;;;;;;;4996680;28;20179;-48
2023/04/04 03:00:54;;;;;;;4.10;1.77;;;;;;;;;;4996341;28;20186;-49
2023/04/04 03:03:20;;;;;;;3.47;2.87;;;;;;;;;;4997665;28;20189;-48
2023/04/04 03:05:48;;;;;;;2.30;1.80;;;;;;;;;;4999414;28;20183;-47
2023/04/04 03:08:14;;;;;;;2.67;2.20;;;;;;;;;;5003012;28;20693;-48
2023/04/04 03:10:40;;;;;;;2.93;2.03;;;;;;;;;;4998643;28;20587;-48
2023/04/04 03:13:07;;;;;;;2.10;1.90;;;;;;;;;;5000074;28;20568;-48
2023/04/04 03:15:36;;;;;;;2.53;1.80;;;;;;;;;;5000368;28;20182;-49
2023/04/04 03:18:02;;;;;;;2.10;1.90;;;;;;;;;;4999102;28;20194;-48
2023/04/04 03:20:28;;;;;;;2.03;1.83;;;;;;;;;;4999969;28;22163;-48
2023/04/04 03:22:55;;;;;;;2.67;2.00;;;;;;;;;;4999814;28;20213;-53
2023/04/04 03:25:21;;;;;;;2.27;1.80;;;;;;;;;;4997418;28;20179;-49
2023/04/04 03:27:47;;;;;;;4.40;2.30;;;;;;;;;;5002219;28;20194;-48
2023/04/04 03:30:13;;;;;;;2.80;2.10;;;;;;;;;;4998201;28;20187;-49
2023/04/04 03:32:39;;;;;;;2.07;1.63;;;;;;;;;;4999656;28;20573;-49
2023/04/04 03:35:06;;;;;;;2.13;1.90;;;;;;;;;;4999198;28;20194;-48
2023/04/04 03:37:32;;;;;;;3.17;2.13;;;;;;;;;;4997461;28;21446;-48
2023/04/04 03:39:58;;;;;;;3.10;1.90;;;;;;;;;;5001304;28;20217;-48
2023/04/04 03:42:25;;;;;;;3.47;1.83;;;;;;;;;;4999715;28;20756;-48
2023/04/04 03:44:52;;;;;;;2.97;2.30;;;;;;;;;;4997926;28;20290;-48
2023/04/04 03:47:19;;;;;;;2.70;2.43;;;;;;;;;;5001020;28;20193;-48
2023/04/04 03:49:45;;;;;;;2.93;1.90;;;;;;;;;;4998663;28;20212;-48
2023/04/04 03:52:11;;;;;;;2.10;1.80;;;;;;;;;;4998063;28;20674;-48
2023/04/04 03:54:38;;;;;;;3.63;3.10;;;;;;;;;;5000581;28;20851;-48
2023/04/04 03:57:04;;;;;;;3.40;2.30;;;;;;;;;;4996831;28;20646;-48
2023/04/04 03:59:30;;;;;;;3.10;2.40;;;;;;;;;;4997431;28;20186;-49
2023/04/04 04:01:56;;;;;;;2.00;1.60;;;;;;;;;;4996913;28;20186;-48
2023/04/04 04:04:22;;;;;;;2.20;2.00;;;;;;;;;;4996636;28;20253;-48
2023/04/04 04:06:48;;;;;;;3.33;2.57;;;;;;;;;;4996733;28;20178;-48
2023/04/04 04:09:15;;;;;;;3.67;3.37;;;;;;;;;;5000275;28;20225;-48
2023/04/04 04:11:41;;;;;;;2.33;2.03;;;;;;;;;;4996404;28;20293;-48
2023/04/04 04:14:07;;;;;;;2.50;1.87;;;;;;;;;;4992618;28;20203;-54
2023/04/04 04:16:33;;;;;;;2.73;2.20;;;;;;;;;;4993115;28;20179;-54
2023/04/04 04:19:00;;;;;;;5.43;2.57;;;;;;;;;;4995857;28;20235;-54
2023/04/04 04:21:26;;;;;;;3.43;2.17;;;;;;;;;;4998104;28;20597;-54
2023/04/04 04:23:52;;;;;;;2.33;2.03;;;;;;;;;;4994206;28;20676;-54
2023/04/04 04:26:20;;;;;;;2.27;1.77;;;;;;;;;;4996684;28;20186;-54
2023/04/04 04:28:47;;;;;;;2.63;2.30;;;;;;;;;;4996701;28;20194;-54
2023/04/04 04:31:13;;;;;;;3.60;2.00;;;;;;;;;;4998748;28;20248;-54
2023/04/04 04:33:40;;;;;;;2.53;2.00;;;;;;;;;;4998786;28;20245;-54
2023/04/04 04:36:06;;;;;;;2.47;2.27;;;;;;;;;;4996762;28;20187;-54
2023/04/04 04:38:32;;;;;;;2.27;2.07;;;;;;;;;;4999944;28;20187;-54
2023/04/04 04:40:58;;;;;;;2.60;2.07;;;;;;;;;;5010242;28;20186;-59
2023/04/04 04:43:25;;;;;;;2.20;1.87;;;;;;;;;;4997234;28;20187;-54
2023/04/04 04:45:51;;;;;;;2.27;1.83;;;;;;;;;;4996581;28;20189;-54
2023/04/04 04:48:17;;;;;;;2.70;2.00;;;;;;;;;;5000696;28;20706;-54
2023/04/04 04:50:46;;;;;;;2.77;2.13;;;;;;;;;;4999564;28;20337;-54
2023/04/04 04:53:15;;;;;;;2.20;2.00;;;;;;;;;;4997716;28;20682;-54
2023/04/04 04:55:42;;;;;;;2.67;1.87;;;;;;;;;;5001210;28;20178;-54
2023/04/04 04:58:09;;;;;;;1.53;1.43;;;;;;;;;;5000622;28;20194;-54
2023/04/04 05:00:36;;;;;;;3.10;2.80;;;;;;;;;;4997517;28;20774;-54
2023/04/04 05:03:05;;;;;;;3.23;2.10;;;;;;;;;;4996892;28;20187;-54
2023/04/04 05:05:31;;;;;;;3.03;2.10;;;;;;;;;;4997922;28;20282;-53
2023/04/04 05:07:57;;;;;;;2.33;1.70;;;;;;;;;;4995635;28;20226;-54
2023/04/04 05:10:24;;;;;;;3.30;2.07;;;;;;;;;;4999536;28;20752;-53
2023/04/04 05:12:50;;;;;;;2.20;2.00;;;;;;;;;;4998080;28;20260;-54
2023/04/04 05:15:16;;;;;;;3.70;2.00;;;;;;;;;;4997252;28;20240;-53
2023/04/04 05:17:42;;;;;;;3.27;2.23;;;;;;;;;;4997766;28;20190;-54
2023/04/04 05:20:08;;;;;;;3.57;2.50;;;;;;;;;;4996936;28;20194;-54
2023/04/04 05:22:34;;;;;;;2.20;1.93;;;;;;;;;;4998223;28;20230;-54
2023/04/04 05:25:01;;;;;;;2.83;2.20;;;;;;;;;;4997288;28;20214;-54
2023/04/04 05:27:27;;;;;;;2.70;1.70;;;;;;;;;;4999073;28;20285;-54
2023/04/04 05:29:53;;;;;;;4.60;2.07;;;;;;;;;;4998382;28;20174;-54
2023/04/04 05:32:19;;;;;;;2.53;2.30;;;;;;;;;;4995782;28;20209;-54
2023/04/04 05:34:45;;;;;;;4.60;2.37;;;;;;;;;;4995425;28;20209;-54
2023/04/04 05:37:11;;;;;;;3.67;2.10;;;;;;;;;;4996948;28;20174;-55
2023/04/04 05:39:38;;;;;;;2.90;2.33;;;;;;;;;;4995014;28;20193;-55
2023/04/04 05:42:04;;;;;;;3.80;2.30;;;;;;;;;;4993895;28;21115;-55
2023/04/04 05:44:30;;;;;;;4.33;2.43;;;;;;;;;;4999721;28;20278;-55
2023/04/04 05:46:56;;;;;;;2.67;2.00;;;;;;;;;;4994896;28;20701;-55
2023/04/04 05:49:22;;;;;;;2.50;2.00;;;;;;;;;;4995229;28;20285;-55
2023/04/04 05:51:48;;;;;;;2.30;1.80;;;;;;;;;;4998012;28;20631;-54
2023/04/04 05:54:14;;;;;;;3.07;2.33;;;;;;;;;;4996642;28;20897;-55
2023/04/04 05:56:41;;;;;;;3.13;2.10;;;;;;;;;;4998899;28;20182;-55
2023/04/04 05:59:07;;;;;;;3.13;2.30;;;;;;;;;;5002722;28;20257;-55
2023/04/04 06:01:33;;;;;;;3.50;2.30;;;;;;;;;;4996169;28;20635;-55
2023/04/04 06:04:02;;;;;;;2.57;2.10;;;;;;;;;;4997733;28;20181;-56
2023/04/04 06:06:28;;;;;;;3.83;1.83;;;;;;;;;;4995908;28;20665;-55
2023/04/04 06:08:54;;;;;;;3.10;2.53;;;;;;;;;;4996028;28;20646;-55
2023/04/04 06:11:21;;;;;;;3.80;2.60;;;;;;;;;;4997549;28;20248;-54
2023/04/04 06:13:47;;;;;;;4.97;2.60;;;;;;;;;;4998423;28;21036;-55
2023/04/04 06:16:13;;;;;;;3.30;2.33;;;;;;;;;;4998597;28;20535;-54
2023/04/04 06:18:39;;;;;;;3.30;2.43;;;;;;;;;;4997720;28;20255;-54
2023/04/04 06:21:06;;;;;;;3.13;2.33;;;;;;;;;;4998252;28;20313;-54
2023/04/04 06:23:32;;;;;;;2.83;2.47;;;;;;;;;;4995141;28;20756;-54
2023/04/04 06:25:58;;;;;;;2.37;2.13;;;;;;;;;;4993513;28;20197;-55
2023/04/04 06:28:24;;;;;;;3.93;2.03;;;;;;;;;;4998810;28;20188;-55
2023/04/04 06:30:50;;;;;;;2.53;2.20;;;;;;;;;;4999587;28;21594;-55
2023/04/04 06:33:16;;;;;;;2.27;2.07;;;;;;;;;;4995150;28;20265;-57
2023/04/04 06:35:44;;;;;;;3.27;2.37;;;;;;;;;;4998186;28;20334;-56
2023/04/04 06:38:10;;;;;;;4.53;2.20;;;;;;;;;;4998961;28;20560;-56
2023/04/04 06:40:36;;;;;;;3.73;2.30;;;;;;;;;;4999766;28;20678;-53
2023/04/04 06:43:03;;;;;;;2.50;2.13;;;;;;;;;;5000323;28;20623;-53
2023/04/04 06:48:55;;;;;;;5.00;2.33;;;;;;;;;;5014926;28;20191;-53
2023/04/04 06:51:22;;;;;;;2.83;2.57;;;;;;;;;;4999463;28;20685;-53
2023/04/04 06:53:48;;;;;;;2.87;2.50;;;;;;;;;;4996533;28;20571;-54
2023/04/04 06:56:14;;;;;;;3.13;2.33;;;;;;;;;;4997864;28;20179;-53
2023/04/04 06:58:40;;;;;;;3.43;2.80;;;;;;;;;;5000803;28;20194;-53
2023/04/04 07:01:06;;;;;;;3.47;2.40;;;;;;;;;;5008435;28;20191;-53
2023/04/04 07:03:32;;;;;;;2.27;2.00;;;;;;;;;;5002306;28;20216;-53
2023/04/04 07:06:02;;;;;;;3.10;2.20;;;;;;;;;;5002050;28;20264;-53
2023/04/04 07:08:28;;;;;;;3.00;2.53;;;;;;;;;;4998717;28;20197;-53
2023/04/04 07:10:55;;;;;;;2.43;2.23;;;;;;;;;;5001104;28;20210;-54
2023/04/04 07:13:22;;;;;;;2.50;2.07;;;;;;;;;;4999505;28;20214;-53
2023/04/04 07:15:48;;;;;;;2.47;2.27;;;;;;;;;;5004575;28;20202;-53
2023/04/04 07:18:15;;;;;;;3.30;2.40;;;;;;;;;;5002040;28;20191;-53
2023/04/04 07:20:42;;;;;;;3.00;2.33;;;;;;;;;;5003201;28;20230;-53
2023/04/04 07:23:10;;;;;;;4.30;2.47;;;;;;;;;;4999278;28;20517;-53
2023/04/04 07:25:36;;;;;;;4.50;2.60;;;;;;;;;;4999888;28;20182;-53
2023/04/04 07:28:03;;;;;;;3.67;2.50;;;;;;;;;;5002779;28;20187;-54
2023/04/04 07:30:31;;;;;;;3.17;2.23;;;;;;;;;;4999553;28;20194;-54
2023/04/04 07:32:58;;;;;;;3.17;2.60;;;;;;;;;;5003377;28;20203;-54
2023/04/04 07:35:24;;;;;;;3.00;2.33;;;;;;;;;;4998334;28;20179;-54
2023/04/04 07:37:51;;;;;;;4.10;2.47;;;;;;;;;;4999602;28;20198;-54
2023/04/04 07:40:17;;;;;;;3.67;2.30;;;;;;;;;;4998149;28;20178;-53
2023/04/04 07:42:44;;;;;;;3.20;2.00;;;;;;;;;;5001677;28;20619;-54
2023/04/04 07:45:10;;;;;;;3.80;2.10;;;;;;;;;;4999283;28;20185;-54
2023/04/04 07:47:36;;;;;;;4.97;2.57;;;;;;;;;;5002556;28;20240;-54
2023/04/04 07:50:03;;;;;;;3.33;2.63;;;;;;;;;;4998619;28;20487;-53
2023/04/04 07:52:29;;;;;;;2.60;2.23;;;;;;;;;;4997430;28;20206;-54
2023/04/04 07:54:55;;;;;;;4.07;2.40;;;;;;;;;;4997641;28;20190;-53
2023/04/04 07:57:21;;;;;;;3.53;2.50;;;;;;;;;;4999668;28;20638;-53
2023/04/04 07:59:47;;;;;;;3.30;2.40;;;;;;;;;;5003702;28;20194;-53
2023/04/04 08:02:13;;;;;;;3.03;2.00;;;;;;;;;;5001688;28;20526;-54
2023/04/04 08:04:39;;;;;;;3.70;2.27;;;;;;;;;;4997745;28;20182;-54
2023/04/04 08:07:05;;;;;;;4.27;1.87;;;;;;;;;;5000109;28;20336;-53
2023/04/04 08:09:35;;;;;;;4.00;2.30;;;;;;;;;;5001069;28;20171;-53
2023/04/04 08:12:01;;;;;;;3.73;1.90;;;;;;;;;;5001999;28;20214;-53
2023/04/04 08:14:27;;;;;;;2.60;2.40;;;;;;;;;;4999635;28;20241;-54
2023/04/04 08:16:53;;;;;;;3.80;1.70;;;;;;;;;;5003523;28;20226;-53
2023/04/04 08:19:20;;;;;;;3.83;2.07;;;;;;;;;;4997326;28;20273;-54
2023/04/04 08:21:46;;;;;;;3.37;2.07;;;;;;;;;;4997582;28;20230;-53
2023/04/04 08:24:12;;;;;;;3.40;2.10;;;;;;;;;;4993542;28;20177;-53
2023/04/04 08:26:38;;;;;;;3.17;1.80;;;;;;;;;;4998160;28;20170;-54
2023/04/04 08:29:04;;;;;;;1.77;1.60;;;;;;;;;;4996916;28;20179;-53
2023/04/04 08:31:30;;;;;;;2.70;2.13;;;;;;;;;;5002044;28;20261;-53
2023/04/04 08:33:56;;;;;;;2.47;1.83;;;;;;;;;;4994050;28;20230;-54
2023/04/04 08:36:23;;;;;;;2.77;2.10;;;;;;;;;;4992968;28;20179;-54
2023/04/04 08:38:49;;;;;;;3.60;2.30;;;;;;;;;;4996169;28;20548;-53
2023/04/04 08:41:15;;;;;;;4.13;1.83;;;;;;;;;;4998270;28;20185;-53
2023/04/04 08:43:45;;;;;;;2.17;1.67;;;;;;;;;;4993676;28;20237;-53
2023/04/04 08:46:12;;;;;;;3.10;1.90;;;;;;;;;;4997781;28;20171;-54
2023/04/04 08:48:42;;;;;;;3.00;1.90;;;;;;;;;;5006763;28;20197;-53
2023/04/04 08:51:10;;;;;;;5.00;2.23;;;;;;;;;;4996040;28;20321;-54
2023/04/04 08:53:37;;;;;;;3.77;2.13;;;;;;;;;;4996010;28;20320;-53
2023/04/04 08:56:03;;;;;;;3.10;1.97;;;;;;;;;;4996964;28;20648;-54
2023/04/04 08:58:29;;;;;;;2.17;1.97;;;;;;;;;;4997693;28;20179;-53
2023/04/04 09:00:55;;;;;;;2.20;1.90;;;;;;;;;;4997083;28;20178;-53
2023/04/04 09:03:26;;;;;;;2.30;1.50;;;;;;;;;;5001204;28;20257;-54
2023/04/04 09:05:53;;;;;;;4.70;1.90;;;;;;;;;;4996703;28;20185;-54
2023/04/04 09:08:20;;;;;;;4.37;1.80;;;;;;;;;;4995905;28;20646;-51
2023/04/04 09:10:46;;;;;;;3.13;1.93;;;;;;;;;;4996374;28;20269;-51
2023/04/04 09:13:12;;;;;;;2.43;2.07;;;;;;;;;;4993813;28;20220;-50
2023/04/04 09:15:40;;;;;;;2.80;1.90;;;;;;;;;;4992622;28;20285;-51
2023/04/04 09:18:06;;;;;;;3.73;2.10;;;;;;;;;;4993873;28;20182;-51
2023/04/04 09:20:35;;;;;;;3.17;1.60;;;;;;;;;;4999389;28;20178;-51
2023/04/04 09:23:05;;;;;;;2.23;1.80;;;;;;;;;;4999485;28;20241;-50
2023/04/04 09:25:31;;;;;;;2.60;2.23;;;;;;;;;;4995542;28;20186;-51
2023/04/04 09:27:57;;;;;;;2.53;2.10;;;;;;;;;;5000160;28;20191;-51
2023/04/04 09:30:24;;;;;;;4.13;2.10;;;;;;;;;;4998513;28;20201;-51
2023/04/04 09:32:51;;;;;;;2.20;1.70;;;;;;;;;;4997312;28;20246;-51
2023/04/04 09:35:19;;;;;;;2.60;1.97;;;;;;;;;;4996827;28;20709;-51
2023/04/04 09:37:46;;;;;;;3.07;2.30;;;;;;;;;;4998121;28;20655;-51
2023/04/04 09:40:13;;;;;;;3.00;1.70;;;;;;;;;;4995999;28;20634;-51
2023/04/04 09:42:39;;;;;;;3.20;1.80;;;;;;;;;;4992090;28;20565;-51
2023/04/04 09:45:06;;;;;;;1.93;1.70;;;;;;;;;;4995420;28;20174;-51
2023/04/04 09:47:32;;;;;;;3.30;1.80;;;;;;;;;;4998605;28;20268;-51
2023/04/04 09:50:06;;;;;;;3.07;1.80;;;;;;;;;;4997630;28;20186;-51
2023/04/04 09:52:34;;;;;;;2.63;2.00;;;;;;;;;;4995605;28;20206;-51
2023/04/04 09:55:01;;;;;;;2.17;1.90;;;;;;;;;;4999495;28;20600;-51
2023/04/04 09:57:31;;;;;;;3.43;2.10;;;;;;;;;;4998965;28;20185;-51
2023/04/04 09:59:58;;;;;;;4.37;2.37;;;;;;;;;;4998514;28;20175;-51
2023/04/04 10:02:24;;;;;;;14.40;12.90;;;;;;;;;;4997173;28;20178;-51
2023/04/04 10:04:52;;;;;;;11.33;9.83;;;;;;;;;;5002767;28;20630;-52
2023/04/04 10:07:18;;;;;;;43.90;34.37;;;;;;;;;;5001791;28;20190;-51
2023/04/04 10:09:47;;;;;;;97.03;76.80;;;;;;;;;;4996084;28;20179;-51
2023/04/04 10:12:13;;;;;;;129.07;100.73;;;;;;;;;;4997131;28;20298;-51
2023/04/04 10:14:40;;;;;;;119.17;93.73;;;;;;;;;;4999958;28;20189;-51
2023/04/04 10:17:09;;;;;;;96.77;75.90;;;;;;;;;;5000486;28;20177;-51
2023/04/04 10:19:38;;;;;;;93.30;73.93;;;;;;;;;;5000147;28;20537;-51
2023/04/04 10:22:08;;;;;;;86.17;68.13;;;;;;;;;;5008656;28;20708;-51
2023/04/04 10:24:35;;;;;;;79.47;57.20;;;;;;;;;;4998262;28;20189;-51
2023/04/04 10:27:01;;;;;;;69.73;57.33;;;;;;;;;;5001375;28;20305;-51
2023/04/04 10:29:27;;;;;;;60.50;49.33;;;;;;;;;;5000168;28;20189;-50
2023/04/04 10:31:57;;;;;;;56.07;45.57;;;;;;;;;;5013271;28;20193;-50
2023/04/04 10:34:38;;;;;;;61.30;47.90;;;;;;;;;;5008414;28;20201;-51
2023/04/04 10:37:15;;;;;;;49.67;39.93;;;;;;;;;;5011148;28;20185;-51
2023/04/04 10:39:46;;;;;;;38.53;33.00;;;;;;;;;;5002155;28;20673;-52
2023/04/04 10:42:15;;;;;;;21.07;17.70;;;;;;;;;;5006438;28;20187;-52
2023/04/04 10:44:42;;;;;;;7.80;5.80;;;;;;;;;;5010964;28;20193;-52
2023/04/04 10:47:13;;;;;;;9.97;7.67;;;;;;;;;;5006885;28;20528;-52
2023/04/04 10:49:39;;;;;;;3.40;2.90;;;;;;;;;;5006391;28;20191;-53
2023/04/04 10:52:05;;;;;;;5.23;2.80;;;;;;;;;;5003721;28;20666;-51
2023/04/04 10:54:32;;;;;;;6.67;2.90;;;;;;;;;;5014780;28;20209;-52
2023/04/04 10:57:02;;;;;;;4.50;2.77;;;;;;;;;;5009890;28;20481;-52
2023/04/04 10:59:28;;;;;;;10.40;2.33;;;;;;;;;;5018337;28;20189;-52
2023/04/04 11:01:57;;;;;;;4.13;2.27;;;;;;;;;;5002066;28;20211;-52
2023/04/04 11:04:37;;;;;;;2.33;2.03;;;;;;;;;;5008517;28;20212;-52
2023/04/04 11:07:06;;;;;;;4.90;2.07;;;;;;;;;;5006563;28;20178;-52
2023/04/04 11:09:48;;;;;;;5.47;2.17;;;;;;;;;;5003337;28;20186;-52
2023/04/04 11:12:19;;;;;;;2.60;1.97;;;;;;;;;;5006234;28;20225;-52
2023/04/04 11:15:09;;;;;;;2.50;2.03;;;;;;;;;;5008295;28;20182;-52
2023/04/04 11:17:53;;;;;;;1.90;1.60;;;;;;;;;;5009736;28;20285;-52
2023/04/04 11:20:30;;;;;;;3.63;2.50;;;;;;;;;;5007739;28;20993;-52
2023/04/04 11:23:06;;;;;;;3.57;2.00;;;;;;;;;;5006217;28;20213;-52
2023/04/04 11:25:33;;;;;;;2.70;2.20;;;;;;;;;;4999573;28;20304;-52
2023/04/04 11:28:03;;;;;;;2.87;1.87;;;;;;;;;;5020642;28;20534;-52
2023/04/04 11:30:29;;;;;;;2.83;1.93;;;;;;;;;;5016651;28;20830;-52
2023/04/04 11:32:59;;;;;;;5.30;1.83;;;;;;;;;;5016014;28;20612;-52
2023/04/04 11:35:27;;;;;;;2.80;2.03;;;;;;;;;;5008803;28;20175;-52
2023/04/04 11:37:53;;;;;;;2.70;1.77;;;;;;;;;;5013243;28;20556;-53
2023/04/04 11:40:19;;;;;;;1.87;1.70;;;;;;;;;;5013589;28;20658;-52
2023/04/04 11:42:51;;;;;;;1.83;1.60;;;;;;;;;;5015873;28;20186;-52
2023/04/04 11:45:21;;;;;;;2.23;2.03;;;;;;;;;;5005615;28;20542;-52
2023/04/04 11:47:47;;;;;;;4.23;2.30;;;;;;;;;;5002904;28;20178;-52
2023/04/04 11:50:14;;;;;;;3.93;2.13;;;;;;;;;;5006544;28;20679;-52
2023/04/04 11:52:41;;;;;;;5.87;2.17;;;;;;;;;;5004742;28;20210;-52
2023/04/04 11:55:15;;;;;;;1.97;1.83;;;;;;;;;;5009249;28;20603;-53
2023/04/04 11:57:42;;;;;;;3.83;2.70;;;;;;;;;;5008049;28;20270;-52
2023/04/04 12:00:08;;;;;;;3.90;2.23;;;;;;;;;;5004438;28;20182;-52
2023/04/04 12:02:35;;;;;;;2.63;2.17;;;;;;;;;;5003255;28;20240;-53
2023/04/04 12:05:01;;;;;;;2.27;2.07;;;;;;;;;;4999922;28;20205;-53
2023/04/04 12:07:30;;;;;;;4.40;2.40;;;;;;;;;;5005918;28;20677;-53
2023/04/04 12:09:57;;;;;;;2.80;1.97;;;;;;;;;;5007479;28;20185;-53
2023/04/04 12:12:24;;;;;;;3.57;2.03;;;;;;;;;;5016658;28;20229;-53
2023/04/04 12:14:50;;;;;;;3.03;2.23;;;;;;;;;;5006475;28;20182;-57
2023/04/04 12:17:16;;;;;;;2.57;2.00;;;;;;;;;;5005964;28;20185;-64
2023/04/04 12:19:43;;;;;;;2.93;2.30;;;;;;;;;;5004652;28;20556;-61
2023/04/04 12:22:09;;;;;;;3.23;2.80;;;;;;;;;;5003619;28;20230;-56
2023/04/04 12:24:36;;;;;;;3.13;2.40;;;;;;;;;;5012078;28;20265;-56
2023/04/04 12:27:02;;;;;;;4.27;2.30;;;;;;;;;;5013029;28;20253;-57
2023/04/04 12:29:35;;;;;;;3.43;2.43;;;;;;;;;;5016408;28;20198;-56
2023/04/04 12:32:01;;;;;;;4.83;2.43;;;;;;;;;;5005474;28;20186;-55
2023/04/04 12:34:31;;;;;;;2.50;2.30;;;;;;;;;;5014711;28;20209;-56
2023/04/04 12:36:58;;;;;;;3.80;2.17;;;;;;;;;;5003663;28;20186;-56
2023/04/04 12:39:27;;;;;;;6.63;2.23;;;;;;;;;;5009741;28;20284;-56
2023/04/04 12:41:56;;;;;;;7.97;3.13;;;;;;;;;;5008392;28;20179;-61
2023/04/04 12:44:27;;;;;;;3.40;2.50;;;;;;;;;;5009270;28;20574;-56
2023/04/04 12:46:57;;;;;;;2.83;2.53;;;;;;;;;;5006126;28;20622;-57
2023/04/04 12:49:23;;;;;;;4.00;2.37;;;;;;;;;;5012735;28;20206;-56
2023/04/04 12:51:52;;;;;;;4.07;2.80;;;;;;;;;;5009865;28;20280;-55
2023/04/04 12:54:29;;;;;;;3.40;2.33;;;;;;;;;;5003744;28;20740;-57
2023/04/04 12:56:56;;;;;;;4.70;3.03;;;;;;;;;;5000862;28;20178;-55
2023/04/04 12:59:23;;;;;;;4.60;2.83;;;;;;;;;;5004370;28;20186;-56
2023/04/04 13:01:49;;;;;;;3.07;2.77;;;;;;;;;;5015340;28;20643;-56
2023/04/04 13:04:16;;;;;;;4.83;2.47;;;;;;;;;;5003281;28;20240;-56
2023/04/04 13:06:49;;;;;;;2.60;2.40;;;;;;;;;;5002600;28;20190;-57
2023/04/04 13:09:19;;;;;;;2.80;2.40;;;;;;;;;;4997772;28;20261;-56
2023/04/04 13:12:18;;;;;;;4.20;2.63;;;;;;;;;;5009505;28;20199;-56
2023/04/04 13:15:06;;;;;;;3.57;2.80;;;;;;;;;;5007606;28;20539;-56
2023/04/04 13:17:43;;;;;;;2.70;2.47;;;;;;;;;;5012458;28;20547;-56
2023/04/04 13:20:09;;;;;;;3.67;2.50;;;;;;;;;;5008169;28;20196;-56
2023/04/04 13:22:36;;;;;;;6.13;2.50;;;;;;;;;;5003330;28;20226;-55
2023/04/04 13:25:03;;;;;;;3.80;2.83;;;;;;;;;;5005889;28;20212;-57
2023/04/04 13:27:29;;;;;;;3.53;2.43;;;;;;;;;;4993272;28;20547;-57
2023/04/04 13:29:56;;;;;;;3.50;2.20;;;;;;;;;;4994647;28;20178;-57
2023/04/04 13:32:22;;;;;;;2.90;2.40;;;;;;;;;;4997630;28;20523;-57
2023/04/04 13:34:48;;;;;;;4.33;2.70;;;;;;;;;;5001982;28;20183;-56
2023/04/04 13:37:14;;;;;;;5.73;2.60;;;;;;;;;;4997780;28;20175;-57
2023/04/04 13:39:40;;;;;;;4.37;2.63;;;;;;;;;;4993359;28;20237;-57
2023/04/04 13:42:06;;;;;;;3.30;2.40;;;;;;;;;;4999834;28;20174;-57
2023/04/04 13:44:32;;;;;;;3.63;2.43;;;;;;;;;;4993718;28;20270;-57
2023/04/04 13:46:59;;;;;;;6.60;2.60;;;;;;;;;;4993472;28;20277;-56
2023/04/04 13:55:33;;;;;;;3.10;2.30;;;;;;;;;;4997257;28;20201;-57
2023/04/04 13:57:59;;;;;;;4.20;2.70;;;;;;;;;;4997309;28;20635;-55
2023/04/04 14:00:25;;;;;;;5.10;2.73;;;;;;;;;;4995698;28;20187;-56
2023/04/04 14:02:51;;;;;;;2.47;2.20;;;;;;;;;;4998813;28;20186;-57
2023/04/04 14:05:18;;;;;;;6.40;2.97;;;;;;;;;;5000108;28;20673;-55
2023/04/04 14:07:44;;;;;;;3.77;2.57;;;;;;;;;;5004858;28;20186;-56
2023/04/04 14:10:11;;;;;;;3.87;2.50;;;;;;;;;;5006387;28;20185;-56
2023/04/04 14:12:37;;;;;;;6.20;3.43;;;;;;;;;;5003409;28;20662;-55
2023/04/04 14:15:04;;;;;;;4.13;2.80;;;;;;;;;;4999629;28;20179;-55
2023/04/04 14:17:30;;;;;;;5.30;2.97;;;;;;;;;;5005518;28;20186;-55
2023/04/04 14:19:56;;;;;;;4.67;2.47;;;;;;;;;;5004393;28;20220;-55
2023/04/04 14:22:22;;;;;;;3.40;3.10;;;;;;;;;;5002282;28;20230;-55
2023/04/04 14:24:48;;;;;;;5.53;2.43;;;;;;;;;;4996294;28;20236;-55
2023/04/04 14:27:14;;;;;;;2.83;2.50;;;;;;;;;;5001121;28;20547;-54
2023/04/04 14:29:40;;;;;;;3.47;2.50;;;;;;;;;;4998340;28;20652;-55
2023/04/04 14:32:06;;;;;;;6.60;2.80;;;;;;;;;;4998150;28;20603;-55
2023/04/04 14:34:32;;;;;;;21.20;5.03;;;;;;;;;;5002393;28;20199;-55
2023/04/04 14:36:59;;;;;;;45.60;5.67;;;;;;;;;;5001269;28;20187;-54
2023/04/04 14:39:25;;;;;;;4.13;2.70;;;;;;;;;;5000821;28;20606;-54
2023/04/04 14:41:51;;;;;;;3.43;2.60;;;;;;;;;;5001460;28;20289;-54
2023/04/04 14:44:19;;;;;;;8.63;2.60;;;;;;;;;;4996455;28;20296;-54
2023/04/04 14:46:45;;;;;;;4.97;2.70;;;;;;;;;;4995849;28;20240;-53
2023/04/04 14:49:11;;;;;;;3.67;3.00;;;;;;;;;;4989380;28;20179;-54
2023/04/04 14:51:37;;;;;;;2.47;2.27;;;;;;;;;;4999738;28;20531;-53